| time (UTC) | temp F | wind direction | speed knots | gust knots | rain 1hr in | rain 24hr in | rain mn in | humidity % | barometer mb |
| 20260505151552 | 51 | 0 | 1.7 | 7.0 | 0.00 | 0.01 | 0.01 | 49 | 1011.7 |
| 20260505124614 | 47 | 0 | 0.0 | 1.7 | 0.00 | 0.01 | 0.01 | 73 | 1010.6 |
| 20260505123108 | 46 | 0 | 0.0 | 1.7 | 0.00 | 0.01 | 0.01 | 77 | 1010.8 |
| 20260505121555 | 46 | 0 | 0.0 | 2.6 | 0.00 | 0.01 | 0.01 | 77 | 1011.3 |
| 20260505120051 | 45 | 0 | 0.0 | 2.6 | 0.00 | 0.01 | 0.01 | 77 | 1011.6 |
| 20260505114549 | 45 | 0 | 0.0 | 0.9 | 0.01 | 0.01 | 0.01 | 77 | 1011.4 |
| 20260505113101 | 46 | 178 | 0.0 | 3.5 | 0.01 | 0.01 | 0.01 | 76 | 1011.2 |
| 20260505111553 | 46 | 0 | 0.0 | 0.0 | 0.01 | 0.01 | 0.01 | 73 | 1011.0 |
| 20260505101549 | 48 | 69 | 1.7 | 5.2 | 0.00 | 0.00 | 0.00 | 60 | 1009.7 |
| 20260505100055 | 49 | 17 | 2.6 | 10.4 | 0.00 | 0.00 | 0.00 | 57 | 1009.6 |
| 20260505094556 | 49 | 344 | 3.5 | 8.7 | 0.00 | 0.00 | 0.00 | 56 | 1009.4 |
| 20260505093054 | 50 | 350 | 5.2 | 10.4 | 0.00 | 0.00 | 0.00 | 52 | 1009.3 |
| 20260505091608 | 50 | 348 | 6.1 | 14.8 | 0.00 | 0.00 | 0.00 | 48 | 1009.5 |
| 20260505090050 | 51 | 317 | 8.7 | 14.8 | 0.00 | 0.00 | 0.00 | 47 | 1008.9 |
| 20260505084553 | 51 | 320 | 6.1 | 13.0 | 0.00 | 0.00 | 0.00 | 48 | 1008.1 |
| 20260505083056 | 51 | 345 | 3.5 | 10.4 | 0.00 | 0.00 | 0.00 | 47 | 1008.9 |
| 20260505081600 | 51 | 19 | 4.3 | 9.6 | 0.00 | 0.00 | 0.00 | 50 | 1007.4 |
| 20260505080108 | 52 | 330 | 1.7 | 7.8 | 0.00 | 0.00 | 0.00 | 48 | 1008.8 |
| 20260505074549 | 52 | 324 | 3.5 | 9.6 | 0.00 | 0.00 | 0.00 | 46 | 1009.1 |
| 20260505073049 | 52 | 344 | 2.6 | 10.4 | 0.00 | 0.00 | 0.00 | 46 | 1009.1 |
| 20260505071556 | 52 | 355 | 4.3 | 13.0 | 0.00 | 0.00 | 0.00 | 47 | 1008.0 |
| 20260505070049 | 52 | 360 | 1.7 | 7.0 | 0.00 | 0.00 | 0.00 | 49 | 1008.0 |
| 20260505064548 | 52 | 325 | 1.7 | 7.0 | 0.00 | 0.00 | 0.00 | 47 | 1008.0 |
| 20260505063105 | 53 | 329 | 3.5 | 9.6 | 0.00 | 0.00 | 0.00 | 47 | 1007.5 |
| 20260505061615 | 53 | 347 | 4.3 | 13.9 | 0.00 | 0.00 | 0.00 | 48 | 1006.6 |
| 20260505054552 | 54 | 344 | 6.1 | 11.3 | 0.00 | 0.00 | 0.00 | 48 | 1006.3 |
| 20260505053053 | 55 | 294 | 5.2 | 11.3 | 0.00 | 0.00 | 0.00 | 46 | 1005.8 |
| 20260505051609 | 55 | 40 | 5.2 | 10.4 | 0.00 | 0.00 | 0.00 | 45 | 1005.2 |
| 20260505041551 | 58 | 324 | 4.3 | 10.4 | 0.00 | 0.00 | 0.00 | 42 | 1005.6 |
| 20260505040053 | 58 | 326 | 3.5 | 13.9 | 0.00 | 0.00 | 0.00 | 41 | 1005.7 |
| 20260505034548 | 59 | 5 | 3.5 | 10.4 | 0.00 | 0.00 | 0.00 | 41 | 1005.3 |
| 20260505033049 | 60 | 336 | 3.5 | 11.3 | 0.00 | 0.00 | 0.00 | 39 | 1005.1 |
| 20260505031556 | 61 | 323 | 5.2 | 10.4 | 0.00 | 0.00 | 0.00 | 38 | 1005.0 |
| 20260505030052 | 62 | 32 | 3.5 | 12.2 | 0.00 | 0.00 | 0.00 | 38 | 1005.1 |
| 20260505024553 | 63 | 349 | 7.0 | 12.2 | 0.00 | 0.00 | 0.00 | 38 | 1004.8 |
| 20260505023047 | 64 | 311 | 6.1 | 15.6 | 0.00 | 0.00 | 0.00 | 40 | 1004.3 |
| 20260505021552 | 65 | 310 | 3.5 | 9.6 | 0.00 | 0.00 | 0.00 | 40 | 1003.6 |
| 20260505020059 | 65 | 329 | 6.1 | 10.4 | 0.00 | 0.00 | 0.00 | 40 | 1003.3 |
| 20260505014552 | 66 | 351 | 3.5 | 7.0 | 0.00 | 0.00 | 0.00 | 40 | 1002.9 |
| 20260505013052 | 68 | 10 | 2.6 | 12.2 | 0.00 | 0.00 | 0.00 | 38 | 1002.5 |
| 20260505011551 | 69 | 332 | 5.2 | 12.2 | 0.00 | 0.00 | 0.00 | 36 | 1002.0 |
| 20260505010107 | 71 | 360 | 4.3 | 13.0 | 0.00 | 0.00 | 0.00 | 35 | 1001.5 |
| 20260505004548 | 72 | 5 | 7.8 | 18.2 | 0.00 | 0.00 | 0.00 | 33 | 1001.0 |
| 20260505003055 | 75 | 333 | 7.8 | 15.6 | 0.00 | 0.00 | 0.00 | 35 | 1000.4 |
| 20260505001548 | 77 | 326 | 7.0 | 15.6 | 0.00 | 0.00 | 0.00 | 37 | 999.7 |
| 20260505000049 | 76 | 295 | 3.5 | 7.8 | 0.00 | 0.00 | 0.00 | 40 | 999.1 |
| 20260504234550 | 77 | 251 | 4.3 | 9.6 | 0.00 | 0.00 | 0.00 | 41 | 999.2 |
| 20260504233106 | 76 | 243 | 4.3 | 16.5 | 0.00 | 0.00 | 0.00 | 41 | 999.3 |
| 20260504231600 | 77 | 265 | 6.1 | 13.9 | 0.00 | 0.00 | 0.00 | 39 | 999.5 |
| 20260504230058 | 78 | 188 | 7.0 | 18.2 | 0.00 | 0.00 | 0.00 | 36 | 999.0 |
| 20260504224554 | 80 | 267 | 6.1 | 13.0 | 0.00 | 0.00 | 0.00 | 33 | 999.0 |
| 20260504223052 | 81 | 267 | 9.6 | 20.0 | 0.00 | 0.00 | 0.00 | 32 | 998.9 |
| 20260504221552 | 82 | 299 | 7.8 | 20.9 | 0.00 | 0.00 | 0.00 | 31 | 998.8 |
| 20260504220054 | 82 | 211 | 7.0 | 13.9 | 0.00 | 0.00 | 0.00 | 31 | 999.0 |
| 20260504214555 | 83 | 186 | 6.1 | 17.4 | 0.00 | 0.00 | 0.00 | 30 | 999.0 |
| 20260504213052 | 82 | 248 | 7.0 | 17.4 | 0.00 | 0.00 | 0.00 | 32 | 999.1 |
| 20260504211552 | 83 | 240 | 7.0 | 17.4 | 0.00 | 0.00 | 0.00 | 31 | 999.0 |
| 20260504210107 | 82 | 155 | 5.2 | 18.2 | 0.00 | 0.00 | 0.00 | 31 | 999.2 |
| 20260504204559 | 82 | 186 | 7.8 | 16.5 | 0.00 | 0.00 | 0.00 | 31 | 999.4 |
| 20260504201554 | 82 | 209 | 5.2 | 13.9 | 0.00 | 0.00 | 0.00 | 29 | 1000.1 |
| 20260504200053 | 82 | 157 | 5.2 | 13.0 | 0.00 | 0.00 | 0.00 | 31 | 1000.3 |
| 20260504194550 | 82 | 234 | 7.0 | 13.9 | 0.00 | 0.00 | 0.00 | 32 | 1000.5 |
| 20260504193050 | 81 | 212 | 7.0 | 14.8 | 0.00 | 0.00 | 0.00 | 33 | 1000.5 |
| 20260504191551 | 81 | 191 | 7.8 | 13.9 | 0.00 | 0.00 | 0.00 | 34 | 1000.5 |
| 20260504190127 | 81 | 189 | 6.1 | 11.3 | 0.00 | 0.00 | 0.00 | 35 | 1000.5 |
| 20260504184549 | 81 | 244 | 7.0 | 11.3 | 0.00 | 0.00 | 0.00 | 35 | 1000.7 |
| 20260504183051 | 80 | 221 | 7.0 | 13.0 | 0.00 | 0.00 | 0.00 | 35 | 1000.7 |
| 20260504181550 | 80 | 302 | 4.3 | 16.5 | 0.00 | 0.00 | 0.00 | 38 | 1000.8 |
| 20260504173052 | 78 | 254 | 7.0 | 15.6 | 0.00 | 0.00 | 0.00 | 39 | 1000.9 |
| 20260504171557 | 78 | 292 | 5.2 | 12.2 | 0.00 | 0.00 | 0.00 | 41 | 1000.8 |